1990 OFA (1990028S10183)


On this page: IBTrACS data - Map and Plots - Positions - Intensities - Original source data

Summary

Start Jan 28
End Feb 10
Basin SP
LMI 115 kt
Sources jtwc_sh
wellington
neumann
In WMO? Yes
Previous storm 1990 NANCY (SP)
Previous in basin 1990 NANCY (SP)
Concurrent storms 1990 TINA (SI)
1990 NANCY (SP)
1990 OFA (SP)
1990 DETY (SI)
1990 CEZERA (SI)
Next in basin 1990 PENI (SP)
Next storm 1990 DETY (SI)

top of page IBTrACS Data: File Access

top of page HURSAT Data: File Access

Image of storm

top of page Plots:

Map of storm track will not appear if FTP is down
Time series of cyclone Maximum Sustained Wind will not appear if FTP is down
Time series of cyclone Minimum Central Pressure will not appear if FTP is down

top of page Track Data:Position

jtwc_sh wellington neumann
Date Lat Lon Lat Lon Lat Lon
1990-01-28 00:00:00 -9.7 -177.1 -9.7 -177.1
1990-01-28 06:00:00 -10.3 -177.4 -10.3 -177.4
1990-01-28 12:00:00 -10.7 -178.2 -10.7 -178.2
1990-01-28 18:00:00 -10.4 -178.9 -10.4 -178.9
1990-01-29 00:00:00 -9.7 -179.3 -9.7 -179.3
1990-01-29 06:00:00 -9.1 -179.4 -9.1 -179.4
1990-01-29 12:00:00 -8.6 -179.5 -8.6 -179.5
1990-01-29 18:00:00 -8.3 -179.6 -8.3 -179.6
1990-01-30 00:00:00 -8.0 -179.8 -8.3 179.5 -8.0 -179.8
1990-01-30 06:00:00 -7.6 -179.7 -8.1 179.8 -7.6 -179.7
1990-01-30 12:00:00 -7.4 -179.3 -8.0 180.2 -7.4 -179.3
1990-01-30 18:00:00 -7.5 -178.9 -7.9 180.6 -7.5 -178.9
1990-01-31 00:00:00 -7.6 -178.7 -8.0 181.0 -7.6 -178.7
1990-01-31 06:00:00 -7.8 -178.5 -8.2 181.3 -7.8 -178.5
1990-01-31 12:00:00 -8.0 -178.2 -8.4 181.7 -8.0 -178.2
1990-01-31 18:00:00 -8.3 -177.9 -8.6 182.1 -8.3 -177.9
1990-02-01 00:00:00 -8.5 -177.5 -8.8 182.5 -8.5 -177.5
1990-02-01 06:00:00 -8.7 -177.0 -9.0 183.0 -8.7 -177.0
1990-02-01 12:00:00 -9.0 -176.7 -9.3 183.5 -9.0 -176.7
1990-02-01 18:00:00 -9.3 -176.2 -9.6 184.0 -9.3 -176.2
1990-02-02 00:00:00 -9.9 -175.5 -10.0 184.7 -9.9 -175.5
1990-02-02 06:00:00 -10.2 -175.2 -10.5 185.3 -10.2 -175.2
1990-02-02 12:00:00 -10.6 -174.8 -11.2 185.9 -10.6 -174.8
1990-02-02 18:00:00 -11.4 -174.3 -11.8 186.0 -11.4 -174.3
1990-02-03 00:00:00 -12.3 -174.1 -12.5 186.0 -12.3 -174.1
jtwc_sh wellington neumann
1990-02-03 06:00:00 -12.9 -173.9 -13.0 186.0 -12.9 -173.9
1990-02-03 12:00:00 -13.6 -173.9 -13.5 186.2 -13.6 -173.9
1990-02-03 18:00:00 -14.0 -173.8 -14.0 186.4 -14.0 -173.8
1990-02-04 00:00:00 -14.7 -173.6 -14.5 186.6 -14.7 -173.6
1990-02-04 06:00:00 -15.7 -172.9 -15.3 187.2 -15.7 -172.9
1990-02-04 12:00:00 -16.7 -172.0 -16.3 187.9 -16.7 -172.0
1990-02-04 18:00:00 -17.8 -171.3 -17.6 188.7 -17.8 -171.3
1990-02-05 00:00:00 -19.1 -170.7 -18.7 189.5 -19.1 -170.7
1990-02-05 06:00:00 -19.9 -169.9 -19.7 190.3 -19.9 -169.9
1990-02-05 12:00:00 -20.8 -169.2 -20.6 190.8 -20.8 -169.2
1990-02-05 18:00:00 -21.8 -168.9 -21.5 191.3 -21.8 -168.9
1990-02-06 00:00:00 -22.7 -168.7 -22.4 191.6 -22.7 -168.7
1990-02-06 06:00:00 -23.5 -168.6 -23.3 191.6 -23.5 -168.6
1990-02-06 12:00:00 -24.3 -168.8 -24.0 191.4 -24.3 -168.8
1990-02-06 18:00:00 -25.2 -169.1 -24.9 190.9 -25.2 -169.1
1990-02-07 00:00:00 -25.8 -169.4 -25.8 190.3 -25.8 -169.4
1990-02-07 06:00:00 -26.7 -169.8 -26.4 189.8 -26.7 -169.8
1990-02-07 12:00:00 -27.3 -170.1 -27.5 189.3 -27.3 -170.1
1990-02-07 18:00:00 -28.0 -170.6 -28.4 188.8 -28.0 -170.6
1990-02-08 00:00:00 -28.7 -171.1 -29.2 188.6 -28.7 -171.1
1990-02-08 06:00:00 -29.5 -171.7 -30.0 188.4 -29.5 -171.7
1990-02-08 12:00:00 -30.2 -172.0 -30.6 188.3 -30.2 -172.0
1990-02-08 18:00:00 -30.7 -172.5 -31.2 188.1 -30.7 -172.5
1990-02-09 00:00:00 -30.9 -172.6 -31.7 188.0 -30.9 -172.6
jtwc_sh wellington neumann
1990-02-09 06:00:00 -31.0 -172.8 -31.9 187.9 -31.0 -172.8
1990-02-09 12:00:00 -31.1 -172.9 -31.9 187.7 -31.1 -172.9
1990-02-09 18:00:00 -31.9 187.5
1990-02-10 00:00:00 -31.5 187.4
1990-02-10 06:00:00 -31.4 187.9
1990-02-10 12:00:00 -31.7 188.4
1990-02-10 18:00:00 -32.0 188.7

top of pageTrack Data:Intensity

jtwc_sh wellington neumann
Date Wind Pres Wind Pres Wind Pres
1990-01-28 00:00:00 25. 25.
1990-01-28 06:00:00 25. 25.
1990-01-28 12:00:00 25. 25.
1990-01-28 18:00:00 25. 25.
1990-01-29 00:00:00 25. 25.
1990-01-29 06:00:00 25. 25.
1990-01-29 12:00:00 25. 25.
1990-01-29 18:00:00 25. 25.
1990-01-30 00:00:00 25. 30. 997. 25.
1990-01-30 06:00:00 25. 30. 997. 25.
1990-01-30 12:00:00 30. 35. 995. 30.
1990-01-30 18:00:00 30. 35. 995. 30.
1990-01-31 00:00:00 30. 40. 990. 30.
1990-01-31 06:00:00 30. 40. 990. 30.
1990-01-31 12:00:00 35. 45. 987. 35.
1990-01-31 18:00:00 40. 50. 985. 40.
1990-02-01 00:00:00 50. 50. 985. 50.
1990-02-01 06:00:00 55. 55. 980. 55.
1990-02-01 12:00:00 65. 55. 980. 65.
1990-02-01 18:00:00 75. 60. 975. 75.
1990-02-02 00:00:00 85. 65. 970. 85.
1990-02-02 06:00:00 90. 65. 970. 90.
1990-02-02 12:00:00 95. 70. 965. 95.
1990-02-02 18:00:00 100. 75. 960. 100.
1990-02-03 00:00:00 105. 75. 960. 105.
jtwc_sh wellington neumann
1990-02-03 06:00:00 110. 80. 955. 110.
1990-02-03 12:00:00 110. 85. 945. 110.
1990-02-03 18:00:00 110. 90. 940. 110.
1990-02-04 00:00:00 110. 90. 940. 110.
1990-02-04 06:00:00 115. 95. 930. 115.
1990-02-04 12:00:00 115. 100. 925. 115.
1990-02-04 18:00:00 110. 100. 925. 110.
1990-02-05 00:00:00 110. 100. 925. 110.
1990-02-05 06:00:00 105. 100. 925. 105.
1990-02-05 12:00:00 100. 95. 930. 100.
1990-02-05 18:00:00 95. 90. 940. 95.
1990-02-06 00:00:00 100. 85. 945. 100.
1990-02-06 06:00:00 100. 85. 945. 100.
1990-02-06 12:00:00 90. 80. 955. 90.
1990-02-06 18:00:00 80. 70. 965. 80.
1990-02-07 00:00:00 65. 65. 970. 65.
1990-02-07 06:00:00 50. 60. 975. 50.
1990-02-07 12:00:00 40. 55. 980. 40.
1990-02-07 18:00:00 40. 55. 980. 40.
1990-02-08 00:00:00 35. 50. 985. 35.
1990-02-08 06:00:00 30. 45. 987. 30.
1990-02-08 12:00:00 30. 40. 990. 30.
1990-02-08 18:00:00 30. 35. 995. 30.
1990-02-09 00:00:00 30. 35. 995. 30.
jtwc_sh wellington neumann
1990-02-09 06:00:00 25. 35. 995. 25.
1990-02-09 12:00:00 25. 35. 995. 25.
1990-02-09 18:00:00 35. 995.
1990-02-10 00:00:00 30. 997.
1990-02-10 06:00:00 30. 997.
1990-02-10 12:00:00 25. 999.
1990-02-10 18:00:00 25. 1000.

top of page Links to source data

Source Source file Format
jtwc_sh bsh131990.txt ATCF
wellington TC_BT_1967_2006.csv:Line=3558:OFA Text table
neumann tracks.sh:Storm=882:OFA:BSH131990:JTWC&NZeal19003 HURDAT